メインページ
METAR-TAF:

METAR-TAF

空港 :

Andahuaylas, ペルー

緯度: 13-43S, 経度: 073-21W, 海抜: 3444m

現時点の気象観測

当レポートは13時間32分前の19:00(UTC)に作成
北東の風 12kt
気温 12°C
湿度 67%
気圧 1034 hPa
視程: 0500m
高度1200ftの雲は散在している
高度4000ftの曇り
散在霧

METAR: SPHY 181900Z 04012KT 6000 0500NE BCFG SCT012 OVC040 12/06 Q1034 RMK PP000

時間: 03:32 (08:32 UTC)

予報

当レポートは15時間32分前の17:00(UTC)に作成
予報は18日の 18時(UTC)から 19日の 18時(UTC)まで有効
北東の風 10kt
視程: 6000m
高度1300ftの雲は散在している
高度5000ftの雲は散在している
18日の 18時(UTC)から 18日の 23時(UTC)まで徐々に
の風 kt
視程: 8000m
高度2000ftの雲は散在している
高度7000ftの千切れ雲あり

TAF: SPHY 181700Z 1818/1918 04010KT 6000 SCT013 SCT050 TX14/1819Z TN03/1911Z BECMG 1818/1823 00000KT 8000 SCT020 BKN070

4,000以上の空港の気象観測と天気予報(METAR報とTAF報)

利用可能な観測所は地図上に黄色い丸と赤い丸で示す。

丸の上にカーソルを重ねると観測所名を参照できる。

次にクリックすると気象観測と天気予報を参照できる。

マップの切り替え:黒色「×」印の緑ボタンをクリックして拡大、「-」印の緑ボタンをクリックして縮小、緑色の三角印をクリックして隣りの地図に切り替え


METAR-TAF: